sensor_id;sensor_type;location;lat;lon;timestamp;temperature;humidity
3628;DHT22;1830;49.000;12.074;2023-03-26T00:00:39;7.20;99.90
3628;DHT22;1830;49.000;12.074;2023-03-26T00:03:08;7.30;99.90
3628;DHT22;1830;49.000;12.074;2023-03-26T00:05:36;7.30;99.90
3628;DHT22;1830;49.000;12.074;2023-03-26T00:08:03;7.30;99.90
3628;DHT22;1830;49.000;12.074;2023-03-26T00:10:33;7.30;99.90
3628;DHT22;1830;49.000;12.074;2023-03-26T00:13:00;7.30;99.90
3628;DHT22;1830;49.000;12.074;2023-03-26T00:15:28;7.20;99.90
3628;DHT22;1830;49.000;12.074;2023-03-26T00:17:55;7.20;99.90
3628;DHT22;1830;49.000;12.074;2023-03-26T00:20:22;7.20;99.90
3628;DHT22;1830;49.000;12.074;2023-03-26T00:22:49;7.30;99.90
3628;DHT22;1830;49.000;12.074;2023-03-26T00:25:17;7.30;99.90
3628;DHT22;1830;49.000;12.074;2023-03-26T00:27:46;7.30;99.90
3628;DHT22;1830;49.000;12.074;2023-03-26T00:30:14;7.40;99.90
3628;DHT22;1830;49.000;12.074;2023-03-26T00:32:42;7.40;99.90
3628;DHT22;1830;49.000;12.074;2023-03-26T00:35:09;7.30;99.90
3628;DHT22;1830;49.000;12.074;2023-03-26T00:37:37;7.20;99.90
3628;DHT22;1830;49.000;12.074;2023-03-26T00:40:08;7.10;99.90
3628;DHT22;1830;49.000;12.074;2023-03-26T00:42:36;7.10;99.90
3628;DHT22;1830;49.000;12.074;2023-03-26T00:45:03;7.10;99.90
3628;DHT22;1830;49.000;12.074;2023-03-26T00:47:30;7.20;99.90
3628;DHT22;1830;49.000;12.074;2023-03-26T00:49:58;7.10;99.90
3628;DHT22;1830;49.000;12.074;2023-03-26T00:52:26;7.00;99.90
3628;DHT22;1830;49.000;12.074;2023-03-26T00:54:53;7.00;99.90
3628;DHT22;1830;49.000;12.074;2023-03-26T00:57:21;7.00;99.90
3628;DHT22;1830;49.000;12.074;2023-03-26T00:59:54;7.20;99.90
3628;DHT22;1830;49.000;12.074;2023-03-26T01:02:21;7.20;99.90
3628;DHT22;1830;49.000;12.074;2023-03-26T01:04:53;7.10;99.90
3628;DHT22;1830;49.000;12.074;2023-03-26T01:07:24;7.10;99.90
3628;DHT22;1830;49.000;12.074;2023-03-26T01:09:55;7.10;99.90
3628;DHT22;1830;49.000;12.074;2023-03-26T01:12:25;7.10;99.90
3628;DHT22;1830;49.000;12.074;2023-03-26T01:14:55;7.20;99.90
3628;DHT22;1830;49.000;12.074;2023-03-26T01:17:25;7.10;99.90
3628;DHT22;1830;49.000;12.074;2023-03-26T01:20:05;7.10;99.90
3628;DHT22;1830;49.000;12.074;2023-03-26T01:22:41;7.10;99.90
3628;DHT22;1830;49.000;12.074;2023-03-26T01:25:11;7.10;99.90
3628;DHT22;1830;49.000;12.074;2023-03-26T01:27:41;7.10;99.90
3628;DHT22;1830;49.000;12.074;2023-03-26T01:30:15;7.10;99.90
3628;DHT22;1830;49.000;12.074;2023-03-26T01:32:51;7.20;99.90
3628;DHT22;1830;49.000;12.074;2023-03-26T01:35:31;7.10;99.90
3628;DHT22;1830;49.000;12.074;2023-03-26T01:38:07;7.10;99.90
3628;DHT22;1830;49.000;12.074;2023-03-26T01:40:40;7.00;99.90
3628;DHT22;1830;49.000;12.074;2023-03-26T01:43:11;7.10;99.90
3628;DHT22;1830;49.000;12.074;2023-03-26T01:45:41;7.00;99.90
3628;DHT22;1830;49.000;12.074;2023-03-26T01:48:09;7.10;99.90
3628;DHT22;1830;49.000;12.074;2023-03-26T01:50:37;7.10;99.90
3628;DHT22;1830;49.000;12.074;2023-03-26T01:53:05;7.10;99.90
3628;DHT22;1830;49.000;12.074;2023-03-26T01:55:41;7.10;99.90
3628;DHT22;1830;49.000;12.074;2023-03-26T01:58:20;7.20;99.90
3628;DHT22;1830;49.000;12.074;2023-03-26T02:00:54;7.10;99.90
3628;DHT22;1830;49.000;12.074;2023-03-26T02:03:29;7.10;99.90
3628;DHT22;1830;49.000;12.074;2023-03-26T02:06:02;7.10;99.90
3628;DHT22;1830;49.000;12.074;2023-03-26T02:08:33;7.10;99.90
3628;DHT22;1830;49.000;12.074;2023-03-26T02:11:04;7.10;99.90
3628;DHT22;1830;49.000;12.074;2023-03-26T02:13:35;7.10;99.90
3628;DHT22;1830;49.000;12.074;2023-03-26T02:16:04;7.10;99.90
3628;DHT22;1830;49.000;12.074;2023-03-26T02:18:32;7.20;99.90
3628;DHT22;1830;49.000;12.074;2023-03-26T02:21:03;7.10;99.90
3628;DHT22;1830;49.000;12.074;2023-03-26T02:23:30;7.00;99.90
3628;DHT22;1830;49.000;12.074;2023-03-26T02:26:04;7.10;99.90
3628;DHT22;1830;49.000;12.074;2023-03-26T02:28:31;7.10;99.90
3628;DHT22;1830;49.000;12.074;2023-03-26T02:30:58;7.10;99.90
3628;DHT22;1830;49.000;12.074;2023-03-26T02:33:26;7.10;99.90
3628;DHT22;1830;49.000;12.074;2023-03-26T02:35:53;7.20;99.90
3628;DHT22;1830;49.000;12.074;2023-03-26T02:38:24;7.30;99.90
3628;DHT22;1830;49.000;12.074;2023-03-26T02:40:52;7.20;99.90
3628;DHT22;1830;49.000;12.074;2023-03-26T02:43:20;7.10;99.90
3628;DHT22;1830;49.000;12.074;2023-03-26T02:45:47;7.10;99.90
3628;DHT22;1830;49.000;12.074;2023-03-26T02:48:14;7.10;99.90
3628;DHT22;1830;49.000;12.074;2023-03-26T02:50:41;7.10;99.90
3628;DHT22;1830;49.000;12.074;2023-03-26T02:53:07;7.00;99.90
3628;DHT22;1830;49.000;12.074;2023-03-26T02:55:34;6.90;99.90
3628;DHT22;1830;49.000;12.074;2023-03-26T02:58:01;7.00;99.90
3628;DHT22;1830;49.000;12.074;2023-03-26T03:00:29;6.90;99.90
3628;DHT22;1830;49.000;12.074;2023-03-26T03:02:57;7.00;99.90
3628;DHT22;1830;49.000;12.074;2023-03-26T03:05:24;7.10;99.90
3628;DHT22;1830;49.000;12.074;2023-03-26T03:07:51;7.10;99.90
3628;DHT22;1830;49.000;12.074;2023-03-26T03:10:23;7.10;99.90
3628;DHT22;1830;49.000;12.074;2023-03-26T03:12:50;7.00;99.90
3628;DHT22;1830;49.000;12.074;2023-03-26T03:15:17;6.90;99.90
3628;DHT22;1830;49.000;12.074;2023-03-26T03:17:45;6.80;99.90
3628;DHT22;1830;49.000;12.074;2023-03-26T03:20:12;6.80;99.90
3628;DHT22;1830;49.000;12.074;2023-03-26T03:22:40;6.90;99.90
3628;DHT22;1830;49.000;12.074;2023-03-26T03:25:08;6.80;99.90
3628;DHT22;1830;49.000;12.074;2023-03-26T03:27:39;6.70;99.90
3628;DHT22;1830;49.000;12.074;2023-03-26T03:30:07;6.80;99.90
3628;DHT22;1830;49.000;12.074;2023-03-26T03:32:35;6.70;99.90
3628;DHT22;1830;49.000;12.074;2023-03-26T03:35:04;6.70;99.90
3628;DHT22;1830;49.000;12.074;2023-03-26T03:37:31;6.70;99.90
3628;DHT22;1830;49.000;12.074;2023-03-26T03:39:57;6.70;99.90
3628;DHT22;1830;49.000;12.074;2023-03-26T03:42:24;6.70;99.90
3628;DHT22;1830;49.000;12.074;2023-03-26T03:44:51;6.60;99.90
3628;DHT22;1830;49.000;12.074;2023-03-26T03:47:18;6.60;99.90
3628;DHT22;1830;49.000;12.074;2023-03-26T03:49:47;6.50;99.90
3628;DHT22;1830;49.000;12.074;2023-03-26T03:52:15;6.40;99.90
3628;DHT22;1830;49.000;12.074;2023-03-26T03:54:42;6.30;99.90
3628;DHT22;1830;49.000;12.074;2023-03-26T10:01:45;8.20;99.90
3628;DHT22;1830;49.000;12.074;2023-03-26T10:04:41;8.30;99.90
3628;DHT22;1830;49.000;12.074;2023-03-26T10:07:25;8.40;99.90
3628;DHT22;1830;49.000;12.074;2023-03-26T10:10:00;8.30;99.90
3628;DHT22;1830;49.000;12.074;2023-03-26T10:12:32;8.30;99.90
3628;DHT22;1830;49.000;12.074;2023-03-26T10:15:20;8.30;99.90
3628;DHT22;1830;49.000;12.074;2023-03-26T10:17:58;8.30;99.90
3628;DHT22;1830;49.000;12.074;2023-03-26T10:20:41;8.30;99.90
3628;DHT22;1830;49.000;12.074;2023-03-26T10:23:25;8.30;99.90
3628;DHT22;1830;49.000;12.074;2023-03-26T10:29:30;8.50;99.90
3628;DHT22;1830;49.000;12.074;2023-03-26T10:32:13;8.50;99.90
3628;DHT22;1830;49.000;12.074;2023-03-26T10:34:55;8.50;99.90
3628;DHT22;1830;49.000;12.074;2023-03-26T10:37:35;8.40;99.90
3628;DHT22;1830;49.000;12.074;2023-03-26T10:40:12;8.40;99.90
3628;DHT22;1830;49.000;12.074;2023-03-26T10:46:18;8.30;99.90
3628;DHT22;1830;49.000;12.074;2023-03-26T10:49:08;8.40;99.90
3628;DHT22;1830;49.000;12.074;2023-03-26T10:51:49;8.30;99.90
3628;DHT22;1830;49.000;12.074;2023-03-26T10:54:28;8.00;99.90
3628;DHT22;1830;49.000;12.074;2023-03-26T10:56:56;7.90;99.90
3628;DHT22;1830;49.000;12.074;2023-03-26T10:59:24;7.60;99.90
3628;DHT22;1830;49.000;12.074;2023-03-26T11:01:59;7.60;99.90
3628;DHT22;1830;49.000;12.074;2023-03-26T11:04:36;7.40;99.90
3628;DHT22;1830;49.000;12.074;2023-03-26T11:07:12;7.40;99.90
3628;DHT22;1830;49.000;12.074;2023-03-26T11:09:44;7.50;99.90
3628;DHT22;1830;49.000;12.074;2023-03-26T11:12:17;7.50;99.90
3628;DHT22;1830;49.000;12.074;2023-03-26T11:14:52;7.60;99.90
3628;DHT22;1830;49.000;12.074;2023-03-26T11:17:31;7.50;99.90
3628;DHT22;1830;49.000;12.074;2023-03-26T11:20:04;7.30;99.90
3628;DHT22;1830;49.000;12.074;2023-03-26T11:22:41;7.30;99.90
3628;DHT22;1830;49.000;12.074;2023-03-26T11:28:24;7.30;99.90
3628;DHT22;1830;49.000;12.074;2023-03-26T11:30:56;7.30;99.90
3628;DHT22;1830;49.000;12.074;2023-03-26T11:33:28;7.50;99.90
3628;DHT22;1830;49.000;12.074;2023-03-26T11:36:00;7.60;99.90
3628;DHT22;1830;49.000;12.074;2023-03-26T11:38:32;7.40;99.90
3628;DHT22;1830;49.000;12.074;2023-03-26T11:41:03;7.60;99.90
3628;DHT22;1830;49.000;12.074;2023-03-26T11:43:34;7.50;99.90
3628;DHT22;1830;49.000;12.074;2023-03-26T11:46:04;7.50;99.90
3628;DHT22;1830;49.000;12.074;2023-03-26T11:48:37;7.50;99.90
3628;DHT22;1830;49.000;12.074;2023-03-26T11:51:08;7.60;99.90
3628;DHT22;1830;49.000;12.074;2023-03-26T11:53:38;7.60;99.90
3628;DHT22;1830;49.000;12.074;2023-03-26T11:56:14;7.50;99.90
3628;DHT22;1830;49.000;12.074;2023-03-26T11:58:48;7.40;99.90
3628;DHT22;1830;49.000;12.074;2023-03-26T12:01:17;7.60;99.90
3628;DHT22;1830;49.000;12.074;2023-03-26T12:03:55;7.40;99.90
3628;DHT22;1830;49.000;12.074;2023-03-26T12:06:24;7.40;99.90
3628;DHT22;1830;49.000;12.074;2023-03-26T12:08:54;7.50;99.90
3628;DHT22;1830;49.000;12.074;2023-03-26T12:11:24;7.60;99.90
3628;DHT22;1830;49.000;12.074;2023-03-26T12:13:55;7.80;99.90
3628;DHT22;1830;49.000;12.074;2023-03-26T12:16:24;7.90;99.90
3628;DHT22;1830;49.000;12.074;2023-03-26T12:19:03;8.00;99.90
3628;DHT22;1830;49.000;12.074;2023-03-26T12:21:43;8.00;99.90
3628;DHT22;1830;49.000;12.074;2023-03-26T12:24:24;8.20;99.90
3628;DHT22;1830;49.000;12.074;2023-03-26T12:27:18;8.50;99.90
3628;DHT22;1830;49.000;12.074;2023-03-26T12:29:49;8.50;99.90
3628;DHT22;1830;49.000;12.074;2023-03-26T12:32:17;8.50;99.90
3628;DHT22;1830;49.000;12.074;2023-03-26T12:34:44;8.30;99.90
3628;DHT22;1830;49.000;12.074;2023-03-26T12:37:36;8.40;99.90
3628;DHT22;1830;49.000;12.074;2023-03-26T12:40:26;8.60;99.90
3628;DHT22;1830;49.000;12.074;2023-03-26T12:42:55;8.80;99.90
3628;DHT22;1830;49.000;12.074;2023-03-26T12:45:27;9.10;99.90
3628;DHT22;1830;49.000;12.074;2023-03-26T12:47:55;8.90;99.90
3628;DHT22;1830;49.000;12.074;2023-03-26T12:50:28;8.80;99.90
3628;DHT22;1830;49.000;12.074;2023-03-26T12:53:07;8.80;99.90
3628;DHT22;1830;49.000;12.074;2023-03-26T12:55:49;8.80;99.90
3628;DHT22;1830;49.000;12.074;2023-03-26T12:58:34;9.00;99.90
3628;DHT22;1830;49.000;12.074;2023-03-26T13:01:07;9.10;99.90
3628;DHT22;1830;49.000;12.074;2023-03-26T13:03:57;9.20;99.90
3628;DHT22;1830;49.000;12.074;2023-03-26T13:06:34;9.10;99.90
3628;DHT22;1830;49.000;12.074;2023-03-26T13:09:18;9.10;99.90
3628;DHT22;1830;49.000;12.074;2023-03-26T13:11:57;9.00;99.90
3628;DHT22;1830;49.000;12.074;2023-03-26T13:14:37;9.10;99.90
3628;DHT22;1830;49.000;12.074;2023-03-26T13:17:11;9.10;99.90
3628;DHT22;1830;49.000;12.074;2023-03-26T13:19:49;9.30;99.90
3628;DHT22;1830;49.000;12.074;2023-03-26T13:22:25;9.40;99.90
3628;DHT22;1830;49.000;12.074;2023-03-26T13:25:01;9.20;99.90
3628;DHT22;1830;49.000;12.074;2023-03-26T13:27:42;9.50;99.90
3628;DHT22;1830;49.000;12.074;2023-03-26T13:30:28;9.50;99.90
3628;DHT22;1830;49.000;12.074;2023-03-26T13:33:17;9.50;99.90
3628;DHT22;1830;49.000;12.074;2023-03-26T13:35:50;9.30;99.90
3628;DHT22;1830;49.000;12.074;2023-03-26T13:38:24;9.40;99.90
3628;DHT22;1830;49.000;12.074;2023-03-26T13:41:02;9.50;99.90
3628;DHT22;1830;49.000;12.074;2023-03-26T13:43:45;9.50;99.90
3628;DHT22;1830;49.000;12.074;2023-03-26T13:46:22;9.70;99.90
3628;DHT22;1830;49.000;12.074;2023-03-26T13:48:55;9.50;99.90
3628;DHT22;1830;49.000;12.074;2023-03-26T13:51:26;9.50;99.90
3628;DHT22;1830;49.000;12.074;2023-03-26T13:53:59;9.80;99.90
3628;DHT22;1830;49.000;12.074;2023-03-26T13:56:29;9.70;99.90
3628;DHT22;1830;49.000;12.074;2023-03-26T13:59:01;9.70;99.90
3628;DHT22;1830;49.000;12.074;2023-03-26T14:01:33;9.70;99.90
3628;DHT22;1830;49.000;12.074;2023-03-26T14:04:09;9.60;99.90
3628;DHT22;1830;49.000;12.074;2023-03-26T14:06:45;9.70;99.90
3628;DHT22;1830;49.000;12.074;2023-03-26T14:09:21;10.10;99.90
3628;DHT22;1830;49.000;12.074;2023-03-26T14:12:00;10.00;99.90
3628;DHT22;1830;49.000;12.074;2023-03-26T14:14:36;10.30;99.90
3628;DHT22;1830;49.000;12.074;2023-03-26T14:17:12;10.50;99.90
3628;DHT22;1830;49.000;12.074;2023-03-26T14:20:31;10.50;99.90
3628;DHT22;1830;49.000;12.074;2023-03-26T14:23:31;10.30;99.90
3628;DHT22;1830;49.000;12.074;2023-03-26T14:26:09;10.60;99.90
3628;DHT22;1830;49.000;12.074;2023-03-26T14:29:03;10.60;99.90
3628;DHT22;1830;49.000;12.074;2023-03-26T14:31:38;10.50;99.90
3628;DHT22;1830;49.000;12.074;2023-03-26T14:34:35;10.50;99.90
3628;DHT22;1830;49.000;12.074;2023-03-26T14:37:22;10.60;99.90
3628;DHT22;1830;49.000;12.074;2023-03-26T14:40:26;10.70;99.90
3628;DHT22;1830;49.000;12.074;2023-03-26T14:43:00;10.50;99.90
3628;DHT22;1830;49.000;12.074;2023-03-26T14:46:05;10.10;99.90
3628;DHT22;1830;49.000;12.074;2023-03-26T14:49:00;10.10;99.90
3628;DHT22;1830;49.000;12.074;2023-03-26T14:51:59;10.20;99.90
3628;DHT22;1830;49.000;12.074;2023-03-26T14:54:30;10.60;99.90
3628;DHT22;1830;49.000;12.074;2023-03-26T15:00:07;10.70;99.90
3628;DHT22;1830;49.000;12.074;2023-03-26T15:03:06;10.90;99.90
3628;DHT22;1830;49.000;12.074;2023-03-26T15:09:21;10.80;99.90
3628;DHT22;1830;49.000;12.074;2023-03-26T15:11:56;11.10;99.90
3628;DHT22;1830;49.000;12.074;2023-03-26T15:14:53;11.20;99.90
3628;DHT22;1830;49.000;12.074;2023-03-26T15:24:08;11.00;99.90
3628;DHT22;1830;49.000;12.074;2023-03-26T15:27:15;10.70;99.90
3628;DHT22;1830;49.000;12.074;2023-03-26T15:33:12;10.30;99.90
3628;DHT22;1830;49.000;12.074;2023-03-26T15:36:10;10.10;99.90
3628;DHT22;1830;49.000;12.074;2023-03-26T15:39:06;10.00;99.90
3628;DHT22;1830;49.000;12.074;2023-03-26T15:41:43;9.90;99.90
3628;DHT22;1830;49.000;12.074;2023-03-26T15:44:29;9.70;99.90
3628;DHT22;1830;49.000;12.074;2023-03-26T15:47:18;9.70;99.90
3628;DHT22;1830;49.000;12.074;2023-03-26T15:49:54;9.70;99.90
3628;DHT22;1830;49.000;12.074;2023-03-26T15:52:28;10.00;99.90
3628;DHT22;1830;49.000;12.074;2023-03-26T15:55:01;10.40;99.90
3628;DHT22;1830;49.000;12.074;2023-03-26T15:57:33;10.50;99.90
3628;DHT22;1830;49.000;12.074;2023-03-26T16:03:10;10.20;99.90
3628;DHT22;1830;49.000;12.074;2023-03-26T16:06:08;10.50;99.90
3628;DHT22;1830;49.000;12.074;2023-03-26T16:08:41;10.50;99.90
3628;DHT22;1830;49.000;12.074;2023-03-26T16:11:12;10.70;99.90
3628;DHT22;1830;49.000;12.074;2023-03-26T16:13:41;10.70;99.90
3628;DHT22;1830;49.000;12.074;2023-03-26T16:16:21;10.70;99.90
3628;DHT22;1830;49.000;12.074;2023-03-26T16:18:54;10.90;99.90
3628;DHT22;1830;49.000;12.074;2023-03-26T16:21:37;10.90;99.90
3628;DHT22;1830;49.000;12.074;2023-03-26T16:24:25;10.80;99.90
3628;DHT22;1830;49.000;12.074;2023-03-26T16:30:25;10.60;99.90
3628;DHT22;1830;49.000;12.074;2023-03-26T16:32:56;10.50;99.90
3628;DHT22;1830;49.000;12.074;2023-03-26T16:35:49;10.60;99.90
3628;DHT22;1830;49.000;12.074;2023-03-26T16:38:25;10.50;99.90
3628;DHT22;1830;49.000;12.074;2023-03-26T16:40:58;10.40;99.90
3628;DHT22;1830;49.000;12.074;2023-03-26T16:46:36;10.30;99.90
3628;DHT22;1830;49.000;12.074;2023-03-26T16:49:19;10.30;99.90
3628;DHT22;1830;49.000;12.074;2023-03-26T16:52:03;10.20;99.90
3628;DHT22;1830;49.000;12.074;2023-03-26T16:54:42;10.30;99.90
3628;DHT22;1830;49.000;12.074;2023-03-26T16:57:22;10.30;99.90
3628;DHT22;1830;49.000;12.074;2023-03-26T17:00:03;10.00;99.90
3628;DHT22;1830;49.000;12.074;2023-03-26T17:02:32;10.10;99.90
3628;DHT22;1830;49.000;12.074;2023-03-26T17:05:09;10.00;99.90
3628;DHT22;1830;49.000;12.074;2023-03-26T17:07:49;10.00;99.90
3628;DHT22;1830;49.000;12.074;2023-03-26T17:10:26;9.90;99.90
3628;DHT22;1830;49.000;12.074;2023-03-26T17:13:01;9.90;99.90
3628;DHT22;1830;49.000;12.074;2023-03-26T17:15:35;10.00;99.90
3628;DHT22;1830;49.000;12.074;2023-03-26T17:18:30;9.90;99.90
3628;DHT22;1830;49.000;12.074;2023-03-26T17:21:03;9.90;99.90
3628;DHT22;1830;49.000;12.074;2023-03-26T17:23:50;9.90;99.90
3628;DHT22;1830;49.000;12.074;2023-03-26T17:26:32;9.80;99.90
3628;DHT22;1830;49.000;12.074;2023-03-26T17:29:15;9.80;99.90
3628;DHT22;1830;49.000;12.074;2023-03-26T17:31:49;9.80;99.90
3628;DHT22;1830;49.000;12.074;2023-03-26T17:34:53;9.80;99.90
3628;DHT22;1830;49.000;12.074;2023-03-26T17:37:40;9.70;99.90
3628;DHT22;1830;49.000;12.074;2023-03-26T17:40:48;9.60;99.90
3628;DHT22;1830;49.000;12.074;2023-03-26T17:43:43;9.60;99.90
3628;DHT22;1830;49.000;12.074;2023-03-26T17:46:30;9.70;99.90
3628;DHT22;1830;49.000;12.074;2023-03-26T17:49:02;9.70;99.90
3628;DHT22;1830;49.000;12.074;2023-03-26T17:51:46;9.70;99.90
3628;DHT22;1830;49.000;12.074;2023-03-26T17:54:19;9.70;99.90
3628;DHT22;1830;49.000;12.074;2023-03-26T17:56:50;9.70;99.90
3628;DHT22;1830;49.000;12.074;2023-03-26T17:59:22;9.60;99.90
3628;DHT22;1830;49.000;12.074;2023-03-26T18:02:03;9.60;99.90
3628;DHT22;1830;49.000;12.074;2023-03-26T18:04:33;9.60;99.90
3628;DHT22;1830;49.000;12.074;2023-03-26T18:07:18;9.60;99.90
3628;DHT22;1830;49.000;12.074;2023-03-26T18:13:17;9.60;99.90
3628;DHT22;1830;49.000;12.074;2023-03-26T18:15:49;9.60;99.90
3628;DHT22;1830;49.000;12.074;2023-03-26T18:18:24;9.50;99.90
3628;DHT22;1830;49.000;12.074;2023-03-26T18:20:53;9.50;99.90
3628;DHT22;1830;49.000;12.074;2023-03-26T18:23:25;9.40;99.90
3628;DHT22;1830;49.000;12.074;2023-03-26T18:25:56;9.10;99.90
3628;DHT22;1830;49.000;12.074;2023-03-26T18:28:34;9.00;99.90
3628;DHT22;1830;49.000;12.074;2023-03-26T18:31:08;9.10;99.90
3628;DHT22;1830;49.000;12.074;2023-03-26T18:33:42;9.10;99.90
3628;DHT22;1830;49.000;12.074;2023-03-26T18:36:11;9.10;99.90
3628;DHT22;1830;49.000;12.074;2023-03-26T18:38:48;8.70;99.90
3628;DHT22;1830;49.000;12.074;2023-03-26T18:41:21;8.60;99.90
3628;DHT22;1830;49.000;12.074;2023-03-26T18:43:51;8.60;99.90
3628;DHT22;1830;49.000;12.074;2023-03-26T18:46:18;8.60;99.90
3628;DHT22;1830;49.000;12.074;2023-03-26T18:48:45;8.50;99.90
3628;DHT22;1830;49.000;12.074;2023-03-26T18:51:41;8.50;99.90
3628;DHT22;1830;49.000;12.074;2023-03-26T18:54:12;8.40;99.90
3628;DHT22;1830;49.000;12.074;2023-03-26T18:56:41;8.30;99.90
3628;DHT22;1830;49.000;12.074;2023-03-26T18:59:21;8.20;99.90
3628;DHT22;1830;49.000;12.074;2023-03-26T19:01:53;7.90;99.90
3628;DHT22;1830;49.000;12.074;2023-03-26T19:04:22;7.90;99.90
3628;DHT22;1830;49.000;12.074;2023-03-26T19:06:50;8.00;99.90
3628;DHT22;1830;49.000;12.074;2023-03-26T19:09:20;8.10;99.90
3628;DHT22;1830;49.000;12.074;2023-03-26T19:11:48;8.00;99.90
3628;DHT22;1830;49.000;12.074;2023-03-26T19:14:18;8.00;99.90
3628;DHT22;1830;49.000;12.074;2023-03-26T19:16:48;7.90;99.90
3628;DHT22;1830;49.000;12.074;2023-03-26T19:19:19;7.60;99.90
3628;DHT22;1830;49.000;12.074;2023-03-26T19:21:48;7.50;99.90
3628;DHT22;1830;49.000;12.074;2023-03-26T19:24:15;7.70;99.90
3628;DHT22;1830;49.000;12.074;2023-03-26T19:26:43;7.50;99.90
3628;DHT22;1830;49.000;12.074;2023-03-26T19:29:12;7.40;99.90
3628;DHT22;1830;49.000;12.074;2023-03-26T19:31:41;7.40;99.90
3628;DHT22;1830;49.000;12.074;2023-03-26T19:34:24;7.30;99.90
3628;DHT22;1830;49.000;12.074;2023-03-26T19:36:53;7.30;99.90
3628;DHT22;1830;49.000;12.074;2023-03-26T19:39:24;7.50;99.90
3628;DHT22;1830;49.000;12.074;2023-03-26T19:41:51;7.70;99.90
3628;DHT22;1830;49.000;12.074;2023-03-26T19:44:23;7.70;99.90
3628;DHT22;1830;49.000;12.074;2023-03-26T19:46:51;7.60;99.90
3628;DHT22;1830;49.000;12.074;2023-03-26T19:49:28;7.50;99.90
3628;DHT22;1830;49.000;12.074;2023-03-26T19:52:04;7.40;99.90
3628;DHT22;1830;49.000;12.074;2023-03-26T19:54:47;7.40;99.90
3628;DHT22;1830;49.000;12.074;2023-03-26T19:57:14;7.40;99.90
3628;DHT22;1830;49.000;12.074;2023-03-26T19:59:41;7.50;99.90
3628;DHT22;1830;49.000;12.074;2023-03-26T20:02:11;7.50;99.90
3628;DHT22;1830;49.000;12.074;2023-03-26T20:04:39;7.60;99.90
3628;DHT22;1830;49.000;12.074;2023-03-26T20:07:10;7.70;99.90
3628;DHT22;1830;49.000;12.074;2023-03-26T20:09:39;7.50;99.90
3628;DHT22;1830;49.000;12.074;2023-03-26T20:12:06;7.50;99.90
3628;DHT22;1830;49.000;12.074;2023-03-26T20:14:33;7.60;99.90
3628;DHT22;1830;49.000;12.074;2023-03-26T20:17:05;7.70;99.90
3628;DHT22;1830;49.000;12.074;2023-03-26T20:19:34;7.60;99.90
3628;DHT22;1830;49.000;12.074;2023-03-26T20:22:01;7.50;99.90
3628;DHT22;1830;49.000;12.074;2023-03-26T20:24:30;7.50;99.90
3628;DHT22;1830;49.000;12.074;2023-03-26T20:27:00;7.30;99.90
3628;DHT22;1830;49.000;12.074;2023-03-26T20:29:39;7.40;99.90
3628;DHT22;1830;49.000;12.074;2023-03-26T20:32:19;7.20;99.90
3628;DHT22;1830;49.000;12.074;2023-03-26T20:34:48;7.20;99.90
3628;DHT22;1830;49.000;12.074;2023-03-26T20:37:15;7.10;99.90
3628;DHT22;1830;49.000;12.074;2023-03-26T20:39:43;7.10;99.90
3628;DHT22;1830;49.000;12.074;2023-03-26T20:42:10;6.80;99.90
3628;DHT22;1830;49.000;12.074;2023-03-26T20:44:40;6.90;99.90
3628;DHT22;1830;49.000;12.074;2023-03-26T20:47:11;7.00;99.90
3628;DHT22;1830;49.000;12.074;2023-03-26T20:49:38;7.00;99.90
3628;DHT22;1830;49.000;12.074;2023-03-26T20:52:11;6.90;99.90
3628;DHT22;1830;49.000;12.074;2023-03-26T20:54:39;7.00;99.90
3628;DHT22;1830;49.000;12.074;2023-03-26T20:57:08;6.70;99.90
3628;DHT22;1830;49.000;12.074;2023-03-26T20:59:36;6.70;99.90
3628;DHT22;1830;49.000;12.074;2023-03-26T21:02:03;6.60;99.90
3628;DHT22;1830;49.000;12.074;2023-03-26T21:04:29;6.80;99.90
3628;DHT22;1830;49.000;12.074;2023-03-26T21:06:56;6.50;99.90
3628;DHT22;1830;49.000;12.074;2023-03-26T21:09:25;6.70;99.90
3628;DHT22;1830;49.000;12.074;2023-03-26T21:12:03;6.70;99.90
3628;DHT22;1830;49.000;12.074;2023-03-26T21:14:32;6.50;99.90
3628;DHT22;1830;49.000;12.074;2023-03-26T21:17:04;6.70;99.90
3628;DHT22;1830;49.000;12.074;2023-03-26T21:19:32;6.70;99.90
3628;DHT22;1830;49.000;12.074;2023-03-26T21:22:09;6.70;99.90
3628;DHT22;1830;49.000;12.074;2023-03-26T21:24:53;6.60;99.90
3628;DHT22;1830;49.000;12.074;2023-03-26T21:27:29;6.60;99.90
3628;DHT22;1830;49.000;12.074;2023-03-26T21:29:58;6.70;99.90
3628;DHT22;1830;49.000;12.074;2023-03-26T21:32:26;6.70;99.90
3628;DHT22;1830;49.000;12.074;2023-03-26T21:34:56;6.50;99.90
3628;DHT22;1830;49.000;12.074;2023-03-26T21:37:23;6.50;99.90
3628;DHT22;1830;49.000;12.074;2023-03-26T21:39:52;6.50;99.90
3628;DHT22;1830;49.000;12.074;2023-03-26T21:42:19;6.60;99.90
3628;DHT22;1830;49.000;12.074;2023-03-26T21:44:46;6.60;99.90
3628;DHT22;1830;49.000;12.074;2023-03-26T21:47:14;6.60;99.90
3628;DHT22;1830;49.000;12.074;2023-03-26T21:49:41;6.80;99.90
3628;DHT22;1830;49.000;12.074;2023-03-26T21:52:10;6.50;99.90
3628;DHT22;1830;49.000;12.074;2023-03-26T21:54:38;6.40;99.90
3628;DHT22;1830;49.000;12.074;2023-03-26T21:57:23;6.50;99.90
3628;DHT22;1830;49.000;12.074;2023-03-26T22:00:01;6.50;99.90
3628;DHT22;1830;49.000;12.074;2023-03-26T22:02:38;6.60;99.90
3628;DHT22;1830;49.000;12.074;2023-03-26T22:05:12;6.50;99.90
3628;DHT22;1830;49.000;12.074;2023-03-26T22:07:49;6.40;99.90
3628;DHT22;1830;49.000;12.074;2023-03-26T22:10:16;6.50;99.90
3628;DHT22;1830;49.000;12.074;2023-03-26T22:12:45;6.50;99.90
3628;DHT22;1830;49.000;12.074;2023-03-26T22:15:11;6.70;99.90
3628;DHT22;1830;49.000;12.074;2023-03-26T22:17:39;6.60;99.90
3628;DHT22;1830;49.000;12.074;2023-03-26T22:20:07;6.60;99.90
3628;DHT22;1830;49.000;12.074;2023-03-26T22:22:37;6.70;99.90
3628;DHT22;1830;49.000;12.074;2023-03-26T22:25:06;6.50;99.90
3628;DHT22;1830;49.000;12.074;2023-03-26T22:27:34;6.50;99.90
3628;DHT22;1830;49.000;12.074;2023-03-26T22:30:03;6.30;99.90
3628;DHT22;1830;49.000;12.074;2023-03-26T22:32:30;6.40;99.90
3628;DHT22;1830;49.000;12.074;2023-03-26T22:34:58;6.40;99.90
3628;DHT22;1830;49.000;12.074;2023-03-26T22:37:25;6.40;99.90
3628;DHT22;1830;49.000;12.074;2023-03-26T22:39:53;6.30;99.90
3628;DHT22;1830;49.000;12.074;2023-03-26T22:42:19;6.30;99.90
3628;DHT22;1830;49.000;12.074;2023-03-26T22:44:46;6.40;99.90
3628;DHT22;1830;49.000;12.074;2023-03-26T22:47:14;6.40;99.90
3628;DHT22;1830;49.000;12.074;2023-03-26T22:49:41;6.30;99.90
3628;DHT22;1830;49.000;12.074;2023-03-26T22:52:08;6.40;99.90
3628;DHT22;1830;49.000;12.074;2023-03-26T22:54:35;6.30;99.90
3628;DHT22;1830;49.000;12.074;2023-03-26T22:57:03;6.40;99.90
3628;DHT22;1830;49.000;12.074;2023-03-26T22:59:29;6.50;99.90
3628;DHT22;1830;49.000;12.074;2023-03-26T23:01:56;6.30;99.90
3628;DHT22;1830;49.000;12.074;2023-03-26T23:04:24;6.40;99.90
3628;DHT22;1830;49.000;12.074;2023-03-26T23:06:52;6.40;99.90
3628;DHT22;1830;49.000;12.074;2023-03-26T23:09:19;6.30;99.90
3628;DHT22;1830;49.000;12.074;2023-03-26T23:11:46;6.30;99.90
3628;DHT22;1830;49.000;12.074;2023-03-26T23:14:13;6.30;99.90
3628;DHT22;1830;49.000;12.074;2023-03-26T23:16:41;6.10;99.90
3628;DHT22;1830;49.000;12.074;2023-03-26T23:19:10;6.20;99.90
3628;DHT22;1830;49.000;12.074;2023-03-26T23:21:38;6.20;99.90
3628;DHT22;1830;49.000;12.074;2023-03-26T23:24:05;6.30;99.90
3628;DHT22;1830;49.000;12.074;2023-03-26T23:26:32;6.40;99.90